sensor_id;sensor_type;location;lat;lon;timestamp;temperature;humidity
61979;DHT22;47938;48.176;16.414;2022-08-06T00:01:37;28.10;48.40
61979;DHT22;47938;48.176;16.414;2022-08-06T00:04:02;28.10;49.00
61979;DHT22;47938;48.176;16.414;2022-08-06T00:06:28;28.10;49.20
61979;DHT22;47938;48.176;16.414;2022-08-06T00:08:53;28.00;49.30
61979;DHT22;47938;48.176;16.414;2022-08-06T00:11:19;28.00;49.50
61979;DHT22;47938;48.176;16.414;2022-08-06T00:13:44;28.00;49.60
61979;DHT22;47938;48.176;16.414;2022-08-06T00:16:10;27.90;49.60
61979;DHT22;47938;48.176;16.414;2022-08-06T00:18:35;27.90;49.60
61979;DHT22;47938;48.176;16.414;2022-08-06T00:21:01;27.80;49.70
61979;DHT22;47938;48.176;16.414;2022-08-06T00:23:26;27.70;49.90
61979;DHT22;47938;48.176;16.414;2022-08-06T00:25:52;27.70;50.00
61979;DHT22;47938;48.176;16.414;2022-08-06T00:28:18;27.70;50.10
61979;DHT22;47938;48.176;16.414;2022-08-06T00:30:44;27.60;50.10
61979;DHT22;47938;48.176;16.414;2022-08-06T00:33:09;27.60;50.30
61979;DHT22;47938;48.176;16.414;2022-08-06T00:35:35;27.50;50.60
61979;DHT22;47938;48.176;16.414;2022-08-06T00:38:00;27.40;50.70
61979;DHT22;47938;48.176;16.414;2022-08-06T00:40:27;27.40;50.70
61979;DHT22;47938;48.176;16.414;2022-08-06T00:42:52;27.30;50.40
61979;DHT22;47938;48.176;16.414;2022-08-06T00:45:18;27.30;50.10
61979;DHT22;47938;48.176;16.414;2022-08-06T00:47:43;27.30;49.70
61979;DHT22;47938;48.176;16.414;2022-08-06T00:50:09;27.30;49.10
61979;DHT22;47938;48.176;16.414;2022-08-06T00:52:34;27.20;48.90
61979;DHT22;47938;48.176;16.414;2022-08-06T00:55:00;27.20;48.80
61979;DHT22;47938;48.176;16.414;2022-08-06T00:57:25;27.20;48.80
61979;DHT22;47938;48.176;16.414;2022-08-06T00:59:51;27.20;48.80
61979;DHT22;47938;48.176;16.414;2022-08-06T01:02:16;27.10;48.70
61979;DHT22;47938;48.176;16.414;2022-08-06T01:04:42;27.10;48.70
61979;DHT22;47938;48.176;16.414;2022-08-06T01:07:07;27.10;48.80
61979;DHT22;47938;48.176;16.414;2022-08-06T01:09:33;27.10;48.70
61979;DHT22;47938;48.176;16.414;2022-08-06T01:11:58;27.10;48.70
61979;DHT22;47938;48.176;16.414;2022-08-06T01:14:24;27.00;48.50
61979;DHT22;47938;48.176;16.414;2022-08-06T01:16:51;27.10;48.60
61979;DHT22;47938;48.176;16.414;2022-08-06T01:19:28;27.00;48.60
61979;DHT22;47938;48.176;16.414;2022-08-06T01:24:36;27.00;48.70
61979;DHT22;47938;48.176;16.414;2022-08-06T01:29:41;27.00;48.80
61979;DHT22;47938;48.176;16.414;2022-08-06T01:32:12;27.00;48.90
61979;DHT22;47938;48.176;16.414;2022-08-06T01:34:48;27.00;48.80
61979;DHT22;47938;48.176;16.414;2022-08-06T01:37:17;27.00;48.80
61979;DHT22;47938;48.176;16.414;2022-08-06T01:39:46;26.90;49.90
61979;DHT22;47938;48.176;16.414;2022-08-06T01:42:13;26.90;49.20
61979;DHT22;47938;48.176;16.414;2022-08-06T01:44:40;26.90;49.30
61979;DHT22;47938;48.176;16.414;2022-08-06T01:47:11;26.90;49.60
61979;DHT22;47938;48.176;16.414;2022-08-06T01:49:37;26.80;49.80
61979;DHT22;47938;48.176;16.414;2022-08-06T01:52:04;26.70;50.00
61979;DHT22;47938;48.176;16.414;2022-08-06T01:54:30;26.70;50.30
61979;DHT22;47938;48.176;16.414;2022-08-06T01:56:59;26.60;50.50
61979;DHT22;47938;48.176;16.414;2022-08-06T01:59:30;26.60;50.80
61979;DHT22;47938;48.176;16.414;2022-08-06T02:01:57;26.50;51.20
61979;DHT22;47938;48.176;16.414;2022-08-06T02:04:25;26.40;51.40
61979;DHT22;47938;48.176;16.414;2022-08-06T02:06:51;26.40;51.70
61979;DHT22;47938;48.176;16.414;2022-08-06T02:09:18;26.30;52.20
61979;DHT22;47938;48.176;16.414;2022-08-06T02:11:53;26.20;52.50
61979;DHT22;47938;48.176;16.414;2022-08-06T02:14:20;26.10;52.80
61979;DHT22;47938;48.176;16.414;2022-08-06T02:16:47;26.00;53.00
61979;DHT22;47938;48.176;16.414;2022-08-06T02:19:13;26.00;53.40
61979;DHT22;47938;48.176;16.414;2022-08-06T02:21:41;25.90;53.50
61979;DHT22;47938;48.176;16.414;2022-08-06T02:24:07;25.80;53.80
61979;DHT22;47938;48.176;16.414;2022-08-06T02:26:34;25.70;54.30
61979;DHT22;47938;48.176;16.414;2022-08-06T02:29:01;25.70;54.70
61979;DHT22;47938;48.176;16.414;2022-08-06T02:31:28;25.50;55.20
61979;DHT22;47938;48.176;16.414;2022-08-06T02:33:53;25.50;55.50
61979;DHT22;47938;48.176;16.414;2022-08-06T02:36:20;25.40;56.10
61979;DHT22;47938;48.176;16.414;2022-08-06T02:38:49;25.30;56.80
61979;DHT22;47938;48.176;16.414;2022-08-06T02:41:23;25.20;57.50
61979;DHT22;47938;48.176;16.414;2022-08-06T02:43:51;25.10;58.30
61979;DHT22;47938;48.176;16.414;2022-08-06T02:46:29;25.00;59.00
61979;DHT22;47938;48.176;16.414;2022-08-06T02:48:58;24.90;59.60
61979;DHT22;47938;48.176;16.414;2022-08-06T02:51:32;24.80;60.80
61979;DHT22;47938;48.176;16.414;2022-08-06T02:54:01;24.60;62.00
61979;DHT22;47938;48.176;16.414;2022-08-06T02:56:27;24.60;62.50
61979;DHT22;47938;48.176;16.414;2022-08-06T02:58:55;24.50;64.20
61979;DHT22;47938;48.176;16.414;2022-08-06T03:01:22;24.40;64.10
61979;DHT22;47938;48.176;16.414;2022-08-06T03:03:49;24.30;64.80
61979;DHT22;47938;48.176;16.414;2022-08-06T03:06:15;24.20;65.40
61979;DHT22;47938;48.176;16.414;2022-08-06T03:08:43;24.00;66.40
61979;DHT22;47938;48.176;16.414;2022-08-06T03:11:09;24.00;66.90
61979;DHT22;47938;48.176;16.414;2022-08-06T03:13:35;24.00;67.50
61979;DHT22;47938;48.176;16.414;2022-08-06T03:16:03;24.00;68.00
61979;DHT22;47938;48.176;16.414;2022-08-06T03:18:28;24.00;68.40
61979;DHT22;47938;48.176;16.414;2022-08-06T03:20:55;23.90;69.20
61979;DHT22;47938;48.176;16.414;2022-08-06T03:23:20;23.90;70.90
61979;DHT22;47938;48.176;16.414;2022-08-06T03:25:47;23.80;70.60
61979;DHT22;47938;48.176;16.414;2022-08-06T03:28:13;23.80;71.10
61979;DHT22;47938;48.176;16.414;2022-08-06T03:30:40;23.70;72.40
61979;DHT22;47938;48.176;16.414;2022-08-06T03:33:13;23.70;73.00
61979;DHT22;47938;48.176;16.414;2022-08-06T03:35:39;23.60;73.70
61979;DHT22;47938;48.176;16.414;2022-08-06T03:38:06;23.50;74.70
61979;DHT22;47938;48.176;16.414;2022-08-06T03:40:32;23.50;75.20
61979;DHT22;47938;48.176;16.414;2022-08-06T03:42:58;23.50;75.50
61979;DHT22;47938;48.176;16.414;2022-08-06T03:45:24;23.40;76.10
61979;DHT22;47938;48.176;16.414;2022-08-06T03:47:51;23.40;76.80
61979;DHT22;47938;48.176;16.414;2022-08-06T03:50:20;23.40;77.20
61979;DHT22;47938;48.176;16.414;2022-08-06T03:52:46;23.20;78.30
61979;DHT22;47938;48.176;16.414;2022-08-06T03:55:14;23.20;79.40
61979;DHT22;47938;48.176;16.414;2022-08-06T03:57:40;23.10;80.00
61979;DHT22;47938;48.176;16.414;2022-08-06T04:00:07;23.10;80.10
61979;DHT22;47938;48.176;16.414;2022-08-06T04:02:35;23.10;80.80
61979;DHT22;47938;48.176;16.414;2022-08-06T04:05:00;23.10;80.90
61979;DHT22;47938;48.176;16.414;2022-08-06T04:07:27;23.10;81.00
61979;DHT22;47938;48.176;16.414;2022-08-06T04:09:53;23.10;80.90
61979;DHT22;47938;48.176;16.414;2022-08-06T04:12:20;23.20;80.40
61979;DHT22;47938;48.176;16.414;2022-08-06T04:14:46;23.20;80.40
61979;DHT22;47938;48.176;16.414;2022-08-06T04:17:12;23.20;80.00
61979;DHT22;47938;48.176;16.414;2022-08-06T04:19:37;23.20;79.60
61979;DHT22;47938;48.176;16.414;2022-08-06T04:22:03;23.30;79.00
61979;DHT22;47938;48.176;16.414;2022-08-06T04:24:28;23.40;77.90
61979;DHT22;47938;48.176;16.414;2022-08-06T04:26:54;23.30;78.60
61979;DHT22;47938;48.176;16.414;2022-08-06T04:29:20;23.40;77.70
61979;DHT22;47938;48.176;16.414;2022-08-06T04:31:48;23.40;76.80
61979;DHT22;47938;48.176;16.414;2022-08-06T04:34:18;23.50;76.50
61979;DHT22;47938;48.176;16.414;2022-08-06T04:36:44;23.40;76.80
61979;DHT22;47938;48.176;16.414;2022-08-06T04:39:10;23.60;75.90
61979;DHT22;47938;48.176;16.414;2022-08-06T04:41:35;23.60;75.10
61979;DHT22;47938;48.176;16.414;2022-08-06T04:44:01;23.80;74.30
61979;DHT22;47938;48.176;16.414;2022-08-06T04:46:26;23.80;73.80
61979;DHT22;47938;48.176;16.414;2022-08-06T04:48:52;23.80;73.40
61979;DHT22;47938;48.176;16.414;2022-08-06T04:51:18;23.80;73.20
61979;DHT22;47938;48.176;16.414;2022-08-06T04:53:47;23.90;73.00
61979;DHT22;47938;48.176;16.414;2022-08-06T04:56:12;23.90;72.90
61979;DHT22;47938;48.176;16.414;2022-08-06T04:58:37;23.90;72.90
61979;DHT22;47938;48.176;16.414;2022-08-06T05:01:03;23.90;73.10
61979;DHT22;47938;48.176;16.414;2022-08-06T05:03:29;23.80;73.80
61979;DHT22;47938;48.176;16.414;2022-08-06T05:06:03;23.80;74.60
61979;DHT22;47938;48.176;16.414;2022-08-06T05:08:30;23.80;74.50
61979;DHT22;47938;48.176;16.414;2022-08-06T05:11:00;23.80;74.70
61979;DHT22;47938;48.176;16.414;2022-08-06T05:13:28;23.70;75.30
61979;DHT22;47938;48.176;16.414;2022-08-06T05:15:56;23.60;76.10
61979;DHT22;47938;48.176;16.414;2022-08-06T05:18:24;23.70;75.70
61979;DHT22;47938;48.176;16.414;2022-08-06T05:20:52;23.70;75.40
61979;DHT22;47938;48.176;16.414;2022-08-06T05:23:18;23.80;75.00
61979;DHT22;47938;48.176;16.414;2022-08-06T05:25:46;23.70;75.00
61979;DHT22;47938;48.176;16.414;2022-08-06T05:28:11;23.60;75.60
61979;DHT22;47938;48.176;16.414;2022-08-06T05:30:44;23.60;76.10
61979;DHT22;47938;48.176;16.414;2022-08-06T05:33:10;23.70;75.60
61979;DHT22;47938;48.176;16.414;2022-08-06T05:35:36;23.80;74.70
61979;DHT22;47938;48.176;16.414;2022-08-06T05:38:01;23.80;74.50
61979;DHT22;47938;48.176;16.414;2022-08-06T05:40:27;23.80;73.90
61979;DHT22;47938;48.176;16.414;2022-08-06T05:42:52;23.80;74.30
61979;DHT22;47938;48.176;16.414;2022-08-06T05:45:18;23.90;73.80
61979;DHT22;47938;48.176;16.414;2022-08-06T05:47:43;23.90;73.30
61979;DHT22;47938;48.176;16.414;2022-08-06T05:50:11;24.00;72.90
61979;DHT22;47938;48.176;16.414;2022-08-06T05:52:47;23.90;73.10
61979;DHT22;47938;48.176;16.414;2022-08-06T05:55:19;24.00;72.60
61979;DHT22;47938;48.176;16.414;2022-08-06T05:57:49;23.90;72.90
61979;DHT22;47938;48.176;16.414;2022-08-06T06:00:16;24.00;72.70
61979;DHT22;47938;48.176;16.414;2022-08-06T06:02:43;24.10;72.10
61979;DHT22;47938;48.176;16.414;2022-08-06T06:05:09;24.10;72.00
61979;DHT22;47938;48.176;16.414;2022-08-06T06:07:35;24.20;71.80
61979;DHT22;47938;48.176;16.414;2022-08-06T06:10:02;24.20;71.60
61979;DHT22;47938;48.176;16.414;2022-08-06T06:12:29;24.20;70.70
61979;DHT22;47938;48.176;16.414;2022-08-06T06:14:55;24.20;71.10
61979;DHT22;47938;48.176;16.414;2022-08-06T06:17:33;24.30;70.60
61979;DHT22;47938;48.176;16.414;2022-08-06T06:20:14;24.30;70.20
61979;DHT22;47938;48.176;16.414;2022-08-06T06:25:20;24.20;70.80
61979;DHT22;47938;48.176;16.414;2022-08-06T06:27:49;24.40;70.00
61979;DHT22;47938;48.176;16.414;2022-08-06T06:30:40;24.40;69.80
61979;DHT22;47938;48.176;16.414;2022-08-06T06:33:06;24.40;70.30
61979;DHT22;47938;48.176;16.414;2022-08-06T06:35:35;24.70;69.00
61979;DHT22;47938;48.176;16.414;2022-08-06T06:40:39;25.40;65.10
61979;DHT22;47938;48.176;16.414;2022-08-06T06:43:11;26.10;61.40
61979;DHT22;47938;48.176;16.414;2022-08-06T06:48:15;26.00;61.60
61979;DHT22;47938;48.176;16.414;2022-08-06T06:50:44;25.80;61.70
61979;DHT22;47938;48.176;16.414;2022-08-06T06:53:10;25.20;63.50
61979;DHT22;47938;48.176;16.414;2022-08-06T06:55:46;25.40;63.60
61979;DHT22;47938;48.176;16.414;2022-08-06T06:58:15;25.60;62.60
61979;DHT22;47938;48.176;16.414;2022-08-06T07:00:42;25.20;64.70
61979;DHT22;47938;48.176;16.414;2022-08-06T07:03:08;25.00;66.50
61979;DHT22;47938;48.176;16.414;2022-08-06T07:05:33;24.60;69.60
61979;DHT22;47938;48.176;16.414;2022-08-06T07:08:01;24.10;72.00
61979;DHT22;47938;48.176;16.414;2022-08-06T07:10:27;24.00;72.30
61979;DHT22;47938;48.176;16.414;2022-08-06T07:12:54;23.80;73.40
61979;DHT22;47938;48.176;16.414;2022-08-06T07:15:21;23.90;74.10
61979;DHT22;47938;48.176;16.414;2022-08-06T07:17:47;23.80;72.20
61979;DHT22;47938;48.176;16.414;2022-08-06T07:20:13;23.40;73.80
61979;DHT22;47938;48.176;16.414;2022-08-06T07:22:41;23.20;75.60
61979;DHT22;47938;48.176;16.414;2022-08-06T07:25:08;23.10;76.10
61979;DHT22;47938;48.176;16.414;2022-08-06T07:27:37;22.90;77.10
61979;DHT22;47938;48.176;16.414;2022-08-06T07:30:03;22.80;78.50
61979;DHT22;47938;48.176;16.414;2022-08-06T07:32:29;22.80;78.70
61979;DHT22;47938;48.176;16.414;2022-08-06T07:34:55;22.80;79.00
61979;DHT22;47938;48.176;16.414;2022-08-06T07:37:21;22.90;77.00
61979;DHT22;47938;48.176;16.414;2022-08-06T07:39:48;22.80;77.80
61979;DHT22;47938;48.176;16.414;2022-08-06T07:42:15;22.80;77.80
61979;DHT22;47938;48.176;16.414;2022-08-06T07:44:45;22.70;77.80
61979;DHT22;47938;48.176;16.414;2022-08-06T07:47:13;22.60;78.30
61979;DHT22;47938;48.176;16.414;2022-08-06T07:49:41;22.40;79.40
61979;DHT22;47938;48.176;16.414;2022-08-06T07:52:07;22.40;79.10
61979;DHT22;47938;48.176;16.414;2022-08-06T07:54:34;22.50;78.30
61979;DHT22;47938;48.176;16.414;2022-08-06T07:57:00;22.40;78.80
61979;DHT22;47938;48.176;16.414;2022-08-06T07:59:26;22.50;77.90
61979;DHT22;47938;48.176;16.414;2022-08-06T08:01:52;22.40;78.30
61979;DHT22;47938;48.176;16.414;2022-08-06T08:04:17;22.60;77.40
61979;DHT22;47938;48.176;16.414;2022-08-06T08:06:43;22.60;77.00
61979;DHT22;47938;48.176;16.414;2022-08-06T08:09:15;22.50;77.00
61979;DHT22;47938;48.176;16.414;2022-08-06T08:11:42;22.40;78.20
61979;DHT22;47938;48.176;16.414;2022-08-06T08:14:09;22.50;77.60
61979;DHT22;47938;48.176;16.414;2022-08-06T08:16:35;22.30;78.80
61979;DHT22;47938;48.176;16.414;2022-08-06T08:19:00;22.30;79.10
61979;DHT22;47938;48.176;16.414;2022-08-06T08:21:26;22.20;80.20
61979;DHT22;47938;48.176;16.414;2022-08-06T08:23:51;22.10;79.70
61979;DHT22;47938;48.176;16.414;2022-08-06T08:26:17;22.10;79.40
61979;DHT22;47938;48.176;16.414;2022-08-06T08:28:43;22.00;79.70
61979;DHT22;47938;48.176;16.414;2022-08-06T08:31:08;22.10;79.40
61979;DHT22;47938;48.176;16.414;2022-08-06T08:33:34;22.30;78.50
61979;DHT22;47938;48.176;16.414;2022-08-06T08:36:00;22.10;78.30
61979;DHT22;47938;48.176;16.414;2022-08-06T08:38:32;21.70;80.80
61979;DHT22;47938;48.176;16.414;2022-08-06T08:41:08;21.80;80.70
61979;DHT22;47938;48.176;16.414;2022-08-06T08:43:36;21.80;79.90
61979;DHT22;47938;48.176;16.414;2022-08-06T08:46:02;21.70;81.60
61979;DHT22;47938;48.176;16.414;2022-08-06T08:48:29;21.70;80.90
61979;DHT22;47938;48.176;16.414;2022-08-06T08:50:56;21.70;80.10
61979;DHT22;47938;48.176;16.414;2022-08-06T08:53:28;21.70;80.20
61979;DHT22;47938;48.176;16.414;2022-08-06T08:55:54;21.70;79.30
61979;DHT22;47938;48.176;16.414;2022-08-06T08:58:19;21.60;78.80
61979;DHT22;47938;48.176;16.414;2022-08-06T09:00:46;21.80;77.40
61979;DHT22;47938;48.176;16.414;2022-08-06T09:03:11;21.80;76.90
61979;DHT22;47938;48.176;16.414;2022-08-06T09:05:37;21.60;76.00
61979;DHT22;47938;48.176;16.414;2022-08-06T09:08:02;21.60;75.40
61979;DHT22;47938;48.176;16.414;2022-08-06T09:10:29;21.70;75.10
61979;DHT22;47938;48.176;16.414;2022-08-06T09:12:54;21.80;73.70
61979;DHT22;47938;48.176;16.414;2022-08-06T09:15:20;22.00;72.60
61979;DHT22;47938;48.176;16.414;2022-08-06T09:17:46;22.10;72.10
61979;DHT22;47938;48.176;16.414;2022-08-06T09:20:12;22.10;72.20
61979;DHT22;47938;48.176;16.414;2022-08-06T09:22:37;21.90;73.00
61979;DHT22;47938;48.176;16.414;2022-08-06T09:25:03;21.70;74.50
61979;DHT22;47938;48.176;16.414;2022-08-06T09:27:32;21.40;76.70
61979;DHT22;47938;48.176;16.414;2022-08-06T09:29:59;21.30;77.70
61979;DHT22;47938;48.176;16.414;2022-08-06T09:32:35;21.30;78.20
61979;DHT22;47938;48.176;16.414;2022-08-06T09:35:00;21.40;77.40
61979;DHT22;47938;48.176;16.414;2022-08-06T09:37:29;21.40;79.00
61979;DHT22;47938;48.176;16.414;2022-08-06T09:39:54;21.20;80.60
61979;DHT22;47938;48.176;16.414;2022-08-06T09:42:36;21.20;83.60
61979;DHT22;47938;48.176;16.414;2022-08-06T09:45:05;21.20;84.50
61979;DHT22;47938;48.176;16.414;2022-08-06T09:47:31;21.40;82.80
61979;DHT22;47938;48.176;16.414;2022-08-06T09:49:56;21.40;84.30
61979;DHT22;47938;48.176;16.414;2022-08-06T09:52:22;21.60;81.80
61979;DHT22;47938;48.176;16.414;2022-08-06T09:54:47;21.80;81.80
61979;DHT22;47938;48.176;16.414;2022-08-06T09:57:13;21.80;79.80
61979;DHT22;47938;48.176;16.414;2022-08-06T09:59:45;21.90;77.90
61979;DHT22;47938;48.176;16.414;2022-08-06T10:02:16;22.10;77.80
61979;DHT22;47938;48.176;16.414;2022-08-06T10:04:42;22.30;77.00
61979;DHT22;47938;48.176;16.414;2022-08-06T10:07:07;22.40;73.90
61979;DHT22;47938;48.176;16.414;2022-08-06T10:09:33;22.40;72.80
61979;DHT22;47938;48.176;16.414;2022-08-06T10:11:59;22.50;71.50
61979;DHT22;47938;48.176;16.414;2022-08-06T10:14:31;22.60;69.80
61979;DHT22;47938;48.176;16.414;2022-08-06T10:19:28;22.80;67.50
61979;DHT22;47938;48.176;16.414;2022-08-06T10:21:53;22.20;69.60
61979;DHT22;47938;48.176;16.414;2022-08-06T10:24:19;22.30;69.30
61979;DHT22;47938;48.176;16.414;2022-08-06T10:26:45;22.30;68.80
61979;DHT22;47938;48.176;16.414;2022-08-06T10:29:11;22.40;67.50
61979;DHT22;47938;48.176;16.414;2022-08-06T10:31:36;22.10;69.00
61979;DHT22;47938;48.176;16.414;2022-08-06T10:34:06;22.00;69.30
61979;DHT22;47938;48.176;16.414;2022-08-06T10:36:36;22.00;69.70
61979;DHT22;47938;48.176;16.414;2022-08-06T10:39:04;22.30;69.10
61979;DHT22;47938;48.176;16.414;2022-08-06T10:41:30;22.70;67.20
61979;DHT22;47938;48.176;16.414;2022-08-06T10:43:55;22.80;65.00
61979;DHT22;47938;48.176;16.414;2022-08-06T10:46:22;22.60;65.30
61979;DHT22;47938;48.176;16.414;2022-08-06T10:48:48;22.60;65.70
61979;DHT22;47938;48.176;16.414;2022-08-06T10:51:14;22.90;63.20
61979;DHT22;47938;48.176;16.414;2022-08-06T10:53:41;22.70;64.00
61979;DHT22;47938;48.176;16.414;2022-08-06T10:56:07;22.90;62.50
61979;DHT22;47938;48.176;16.414;2022-08-06T10:58:33;23.20;61.70
61979;DHT22;47938;48.176;16.414;2022-08-06T11:01:00;23.60;59.50
61979;DHT22;47938;48.176;16.414;2022-08-06T11:05:56;23.60;59.10
61979;DHT22;47938;48.176;16.414;2022-08-06T11:14:00;23.20;60.60
61979;DHT22;47938;48.176;16.414;2022-08-06T11:16:27;23.40;60.00
61979;DHT22;47938;48.176;16.414;2022-08-06T11:19:00;22.90;60.60
61979;DHT22;47938;48.176;16.414;2022-08-06T11:21:37;22.80;62.00
61979;DHT22;47938;48.176;16.414;2022-08-06T11:24:03;22.90;61.10
61979;DHT22;47938;48.176;16.414;2022-08-06T11:26:36;22.70;62.00
61979;DHT22;47938;48.176;16.414;2022-08-06T11:29:02;22.60;62.10
61979;DHT22;47938;48.176;16.414;2022-08-06T11:31:32;22.90;61.60
61979;DHT22;47938;48.176;16.414;2022-08-06T11:33:58;22.90;61.20
61979;DHT22;47938;48.176;16.414;2022-08-06T11:36:25;23.20;61.00
61979;DHT22;47938;48.176;16.414;2022-08-06T11:41:20;23.40;59.00
61979;DHT22;47938;48.176;16.414;2022-08-06T11:51:43;23.50;58.30
61979;DHT22;47938;48.176;16.414;2022-08-06T11:54:18;23.30;59.60
61979;DHT22;47938;48.176;16.414;2022-08-06T11:59:29;23.20;60.50
61979;DHT22;47938;48.176;16.414;2022-08-06T12:01:55;23.10;60.90
61979;DHT22;47938;48.176;16.414;2022-08-06T12:09:38;23.00;61.30
61979;DHT22;47938;48.176;16.414;2022-08-06T12:17:33;23.30;59.80
61979;DHT22;47938;48.176;16.414;2022-08-06T12:19:59;23.00;60.70
61979;DHT22;47938;48.176;16.414;2022-08-06T12:22:24;23.00;61.00
61979;DHT22;47938;48.176;16.414;2022-08-06T12:24:57;22.90;61.40
61979;DHT22;47938;48.176;16.414;2022-08-06T12:27:22;23.00;60.90
61979;DHT22;47938;48.176;16.414;2022-08-06T12:29:48;22.90;61.40
61979;DHT22;47938;48.176;16.414;2022-08-06T12:32:19;22.90;61.20
61979;DHT22;47938;48.176;16.414;2022-08-06T12:34:45;22.90;61.20
61979;DHT22;47938;48.176;16.414;2022-08-06T12:37:10;22.90;61.30
61979;DHT22;47938;48.176;16.414;2022-08-06T12:39:39;23.10;61.00
61979;DHT22;47938;48.176;16.414;2022-08-06T12:42:05;23.00;60.70
61979;DHT22;47938;48.176;16.414;2022-08-06T12:44:31;22.90;60.80
61979;DHT22;47938;48.176;16.414;2022-08-06T12:47:09;22.90;60.90
61979;DHT22;47938;48.176;16.414;2022-08-06T12:49:34;22.80;61.10
61979;DHT22;47938;48.176;16.414;2022-08-06T12:54:37;22.80;61.30
61979;DHT22;47938;48.176;16.414;2022-08-06T12:57:03;22.80;61.70
61979;DHT22;47938;48.176;16.414;2022-08-06T12:59:28;23.00;60.80
61979;DHT22;47938;48.176;16.414;2022-08-06T13:01:54;23.10;60.40
61979;DHT22;47938;48.176;16.414;2022-08-06T13:04:20;22.80;61.60
61979;DHT22;47938;48.176;16.414;2022-08-06T13:06:46;23.10;60.50
61979;DHT22;47938;48.176;16.414;2022-08-06T13:09:12;23.00;60.90
61979;DHT22;47938;48.176;16.414;2022-08-06T13:11:38;23.10;60.50
61979;DHT22;47938;48.176;16.414;2022-08-06T13:14:07;23.10;60.30
61979;DHT22;47938;48.176;16.414;2022-08-06T13:16:40;23.10;60.00
61979;DHT22;47938;48.176;16.414;2022-08-06T13:19:08;23.00;60.40
61979;DHT22;47938;48.176;16.414;2022-08-06T13:21:34;22.90;60.70
61979;DHT22;47938;48.176;16.414;2022-08-06T13:24:00;22.90;60.20
61979;DHT22;47938;48.176;16.414;2022-08-06T13:26:26;22.80;60.90
61979;DHT22;47938;48.176;16.414;2022-08-06T13:31:37;22.80;60.10
61979;DHT22;47938;48.176;16.414;2022-08-06T13:34:04;22.80;60.80
61979;DHT22;47938;48.176;16.414;2022-08-06T13:36:30;22.60;60.90
61979;DHT22;47938;48.176;16.414;2022-08-06T13:38:56;22.50;61.70
61979;DHT22;47938;48.176;16.414;2022-08-06T13:41:25;22.30;62.40
61979;DHT22;47938;48.176;16.414;2022-08-06T13:43:51;22.30;63.20
61979;DHT22;47938;48.176;16.414;2022-08-06T13:46:17;22.50;62.40
61979;DHT22;47938;48.176;16.414;2022-08-06T13:48:47;22.60;61.20
61979;DHT22;47938;48.176;16.414;2022-08-06T13:51:16;22.40;61.60
61979;DHT22;47938;48.176;16.414;2022-08-06T13:53:41;22.50;61.80
61979;DHT22;47938;48.176;16.414;2022-08-06T13:56:07;22.50;62.20
61979;DHT22;47938;48.176;16.414;2022-08-06T13:58:33;22.30;62.80
61979;DHT22;47938;48.176;16.414;2022-08-06T14:00:58;22.50;62.40
61979;DHT22;47938;48.176;16.414;2022-08-06T14:03:24;22.50;62.60
61979;DHT22;47938;48.176;16.414;2022-08-06T14:05:49;22.50;62.60
61979;DHT22;47938;48.176;16.414;2022-08-06T14:08:15;22.40;62.90
61979;DHT22;47938;48.176;16.414;2022-08-06T14:10:40;22.60;62.40
61979;DHT22;47938;48.176;16.414;2022-08-06T14:13:06;22.60;62.10
61979;DHT22;47938;48.176;16.414;2022-08-06T14:15:32;22.50;62.90
61979;DHT22;47938;48.176;16.414;2022-08-06T14:17:57;22.20;63.50
61979;DHT22;47938;48.176;16.414;2022-08-06T14:20:23;22.00;64.80
61979;DHT22;47938;48.176;16.414;2022-08-06T14:22:48;22.30;63.90
61979;DHT22;47938;48.176;16.414;2022-08-06T14:25:13;22.60;62.70
61979;DHT22;47938;48.176;16.414;2022-08-06T14:27:39;22.70;62.10
61979;DHT22;47938;48.176;16.414;2022-08-06T14:30:05;22.70;62.10
61979;DHT22;47938;48.176;16.414;2022-08-06T14:32:30;22.50;62.90
61979;DHT22;47938;48.176;16.414;2022-08-06T14:34:56;22.40;63.40
61979;DHT22;47938;48.176;16.414;2022-08-06T14:37:22;22.40;63.30
61979;DHT22;47938;48.176;16.414;2022-08-06T14:39:47;22.30;63.70
61979;DHT22;47938;48.176;16.414;2022-08-06T14:42:13;22.10;64.20
61979;DHT22;47938;48.176;16.414;2022-08-06T14:44:38;22.00;64.90
61979;DHT22;47938;48.176;16.414;2022-08-06T14:47:04;22.00;65.20
61979;DHT22;47938;48.176;16.414;2022-08-06T14:49:29;22.00;65.30
61979;DHT22;47938;48.176;16.414;2022-08-06T14:51:55;22.10;64.60
61979;DHT22;47938;48.176;16.414;2022-08-06T14:54:20;22.20;64.50
61979;DHT22;47938;48.176;16.414;2022-08-06T14:56:46;22.40;63.80
61979;DHT22;47938;48.176;16.414;2022-08-06T14:59:11;22.70;62.70
61979;DHT22;47938;48.176;16.414;2022-08-06T15:01:37;22.40;63.20
61979;DHT22;47938;48.176;16.414;2022-08-06T15:04:02;22.30;63.80
61979;DHT22;47938;48.176;16.414;2022-08-06T15:06:28;22.20;64.00
61979;DHT22;47938;48.176;16.414;2022-08-06T15:08:53;22.20;64.20
61979;DHT22;47938;48.176;16.414;2022-08-06T15:11:19;22.20;64.10
61979;DHT22;47938;48.176;16.414;2022-08-06T15:13:44;22.00;65.10
61979;DHT22;47938;48.176;16.414;2022-08-06T15:16:10;22.10;64.80
61979;DHT22;47938;48.176;16.414;2022-08-06T15:18:35;22.10;65.20
61979;DHT22;47938;48.176;16.414;2022-08-06T15:21:01;22.20;64.20
61979;DHT22;47938;48.176;16.414;2022-08-06T15:23:26;22.00;64.70
61979;DHT22;47938;48.176;16.414;2022-08-06T15:25:52;22.10;64.90
61979;DHT22;47938;48.176;16.414;2022-08-06T15:28:17;22.20;64.20
61979;DHT22;47938;48.176;16.414;2022-08-06T15:30:43;22.30;63.90
61979;DHT22;47938;48.176;16.414;2022-08-06T15:33:09;22.40;63.30
61979;DHT22;47938;48.176;16.414;2022-08-06T15:35:34;22.30;63.20
61979;DHT22;47938;48.176;16.414;2022-08-06T15:38:00;22.40;63.00
61979;DHT22;47938;48.176;16.414;2022-08-06T15:40:25;22.30;62.80
61979;DHT22;47938;48.176;16.414;2022-08-06T15:42:50;22.30;62.90
61979;DHT22;47938;48.176;16.414;2022-08-06T15:45:16;22.40;62.30
61979;DHT22;47938;48.176;16.414;2022-08-06T15:47:41;22.40;62.20
61979;DHT22;47938;48.176;16.414;2022-08-06T15:50:07;22.20;62.90
61979;DHT22;47938;48.176;16.414;2022-08-06T15:52:33;22.20;62.80
61979;DHT22;47938;48.176;16.414;2022-08-06T15:55:00;22.10;63.10
61979;DHT22;47938;48.176;16.414;2022-08-06T15:57:25;22.20;62.90
61979;DHT22;47938;48.176;16.414;2022-08-06T15:59:51;22.00;62.90
61979;DHT22;47938;48.176;16.414;2022-08-06T16:02:16;22.00;63.20
61979;DHT22;47938;48.176;16.414;2022-08-06T16:04:42;21.90;63.40
61979;DHT22;47938;48.176;16.414;2022-08-06T16:07:07;21.90;63.80